sensor_id;sensor_type;location;lat;lon;timestamp;pressure;altitude;pressure_sealevel;temperature;humidity
18145;BME280;14857;41.200;-8.326;2022-10-22T00:02:20;99683.03;;;17.49;100.00
18145;BME280;14857;41.200;-8.326;2022-10-22T00:04:50;99677.44;;;17.52;100.00
18145;BME280;14857;41.200;-8.326;2022-10-22T00:07:20;99677.28;;;17.53;100.00
18145;BME280;14857;41.200;-8.326;2022-10-22T00:09:48;99665.22;;;17.51;100.00
18145;BME280;14857;41.200;-8.326;2022-10-22T00:12:17;99648.75;;;17.57;100.00
18145;BME280;14857;41.200;-8.326;2022-10-22T00:14:46;99651.22;;;17.58;100.00
18145;BME280;14857;41.200;-8.326;2022-10-22T00:17:15;99648.75;;;17.57;100.00
18145;BME280;14857;41.200;-8.326;2022-10-22T00:19:44;99612.97;;;17.37;100.00
18145;BME280;14857;41.200;-8.326;2022-10-22T00:22:14;99647.59;;;17.59;100.00
18145;BME280;14857;41.200;-8.326;2022-10-22T00:24:43;99623.72;;;17.51;100.00
18145;BME280;14857;41.200;-8.326;2022-10-22T00:27:13;99629.56;;;17.63;100.00
18145;BME280;14857;41.200;-8.326;2022-10-22T00:29:41;99630.88;;;17.59;100.00
18145;BME280;14857;41.200;-8.326;2022-10-22T00:32:10;99628.56;;;17.56;100.00
18145;BME280;14857;41.200;-8.326;2022-10-22T00:34:38;99633.03;;;17.55;100.00
18145;BME280;14857;41.200;-8.326;2022-10-22T00:37:07;99605.56;;;17.40;100.00
18145;BME280;14857;41.200;-8.326;2022-10-22T00:39:37;99631.34;;;17.46;100.00
18145;BME280;14857;41.200;-8.326;2022-10-22T00:42:05;99626.19;;;17.37;100.00
18145;BME280;14857;41.200;-8.326;2022-10-22T00:45:14;99628.84;;;17.37;100.00
18145;BME280;14857;41.200;-8.326;2022-10-22T00:47:47;99624.84;;;17.24;100.00
18145;BME280;14857;41.200;-8.326;2022-10-22T00:50:20;99636.06;;;17.26;100.00
18145;BME280;14857;41.200;-8.326;2022-10-22T00:52:49;99636.06;;;17.18;100.00
18145;BME280;14857;41.200;-8.326;2022-10-22T00:55:20;99647.28;;;17.20;100.00
18145;BME280;14857;41.200;-8.326;2022-10-22T00:57:49;99647.63;;;17.17;100.00
18145;BME280;14857;41.200;-8.326;2022-10-22T01:00:20;99652.06;;;17.17;100.00
18145;BME280;14857;41.200;-8.326;2022-10-22T01:02:49;99649.94;;;17.12;100.00
18145;BME280;14857;41.200;-8.326;2022-10-22T01:05:19;99644.66;;;17.12;100.00
18145;BME280;14857;41.200;-8.326;2022-10-22T01:07:51;99641.81;;;17.06;100.00
18145;BME280;14857;41.200;-8.326;2022-10-22T01:10:39;99638.66;;;17.02;100.00
18145;BME280;14857;41.200;-8.326;2022-10-22T01:13:19;99637.00;;;17.01;100.00
18145;BME280;14857;41.200;-8.326;2022-10-22T01:15:58;99632.69;;;16.92;100.00
18145;BME280;14857;41.200;-8.326;2022-10-22T01:18:31;99641.69;;;16.82;100.00
18145;BME280;14857;41.200;-8.326;2022-10-22T01:21:09;99650.41;;;16.74;100.00
18145;BME280;14857;41.200;-8.326;2022-10-22T01:24:11;99644.44;;;16.64;100.00
18145;BME280;14857;41.200;-8.326;2022-10-22T01:27:08;99642.34;;;16.50;100.00
18145;BME280;14857;41.200;-8.326;2022-10-22T01:29:47;99647.13;;;16.54;100.00
18145;BME280;14857;41.200;-8.326;2022-10-22T01:32:21;99650.91;;;16.52;100.00
18145;BME280;14857;41.200;-8.326;2022-10-22T01:34:54;99655.91;;;16.55;100.00
18145;BME280;14857;41.200;-8.326;2022-10-22T01:37:27;99654.47;;;16.60;100.00
18145;BME280;14857;41.200;-8.326;2022-10-22T01:39:57;99650.69;;;16.63;100.00
18145;BME280;14857;41.200;-8.326;2022-10-22T01:42:27;99645.63;;;16.52;100.00
18145;BME280;14857;41.200;-8.326;2022-10-22T01:44:57;99645.63;;;16.52;100.00
18145;BME280;14857;41.200;-8.326;2022-10-22T01:47:36;99644.47;;;16.54;100.00
18145;BME280;14857;41.200;-8.326;2022-10-22T01:50:26;99640.06;;;16.55;100.00
18145;BME280;14857;41.200;-8.326;2022-10-22T01:53:12;99627.69;;;16.55;100.00
18145;BME280;14857;41.200;-8.326;2022-10-22T01:55:57;99614.06;;;16.42;100.00
18145;BME280;14857;41.200;-8.326;2022-10-22T01:58:37;99627.69;;;16.55;100.00
18145;BME280;14857;41.200;-8.326;2022-10-22T02:01:14;99620.91;;;16.53;100.00
18145;BME280;14857;41.200;-8.326;2022-10-22T02:03:50;99621.72;;;16.53;100.00
18145;BME280;14857;41.200;-8.326;2022-10-22T02:06:24;99620.63;;;16.56;100.00
18145;BME280;14857;41.200;-8.326;2022-10-22T02:08:54;99620.91;;;16.53;100.00
18145;BME280;14857;41.200;-8.326;2022-10-22T02:11:24;99619.78;;;16.55;100.00
18145;BME280;14857;41.200;-8.326;2022-10-22T02:13:56;99623.13;;;16.57;100.00
18145;BME280;14857;41.200;-8.326;2022-10-22T02:16:29;99623.13;;;16.57;100.00
18145;BME280;14857;41.200;-8.326;2022-10-22T02:19:01;99623.91;;;16.58;100.00
18145;BME280;14857;41.200;-8.326;2022-10-22T02:21:31;99622.94;;;16.59;100.00
18145;BME280;14857;41.200;-8.326;2022-10-22T02:24:00;99621.97;;;16.60;100.00
18145;BME280;14857;41.200;-8.326;2022-10-22T02:26:31;99614.88;;;16.60;100.00
18145;BME280;14857;41.200;-8.326;2022-10-22T02:29:04;99618.31;;;16.61;100.00
18145;BME280;14857;41.200;-8.326;2022-10-22T02:31:37;99599.19;;;16.59;100.00
18145;BME280;14857;41.200;-8.326;2022-10-22T02:34:10;99604.97;;;16.62;100.00
18145;BME280;14857;41.200;-8.326;2022-10-22T02:36:42;99597.72;;;16.64;100.00
18145;BME280;14857;41.200;-8.326;2022-10-22T02:39:17;99589.66;;;16.66;100.00
18145;BME280;14857;41.200;-8.326;2022-10-22T02:41:47;99589.84;;;16.72;100.00
18145;BME280;14857;41.200;-8.326;2022-10-22T02:44:20;99572.38;;;16.79;100.00
18145;BME280;14857;41.200;-8.326;2022-10-22T02:46:50;99578.50;;;16.80;100.00
18145;BME280;14857;41.200;-8.326;2022-10-22T02:49:19;99560.81;;;16.80;100.00
18145;BME280;14857;41.200;-8.326;2022-10-22T02:51:47;99555.22;;;16.84;100.00
18145;BME280;14857;41.200;-8.326;2022-10-22T02:54:16;99548.63;;;16.88;100.00
18145;BME280;14857;41.200;-8.326;2022-10-22T02:56:44;99541.84;;;16.85;100.00
18145;BME280;14857;41.200;-8.326;2022-10-22T02:59:13;99526.16;;;16.75;100.00
18145;BME280;14857;41.200;-8.326;2022-10-22T03:01:41;99544.66;;;16.84;100.00
18145;BME280;14857;41.200;-8.326;2022-10-22T03:04:11;99529.31;;;16.87;100.00
18145;BME280;14857;41.200;-8.326;2022-10-22T03:06:40;99524.69;;;16.81;100.00
18145;BME280;14857;41.200;-8.326;2022-10-22T03:09:10;99514.75;;;16.75;100.00
18145;BME280;14857;41.200;-8.326;2022-10-22T03:11:38;99510.81;;;16.79;100.00
18145;BME280;14857;41.200;-8.326;2022-10-22T03:14:06;99514.13;;;16.81;100.00
18145;BME280;14857;41.200;-8.326;2022-10-22T03:16:35;99497.28;;;16.82;100.00
18145;BME280;14857;41.200;-8.326;2022-10-22T03:19:03;99485.06;;;16.81;100.00
18145;BME280;14857;41.200;-8.326;2022-10-22T03:21:36;99494.00;;;16.88;100.00
18145;BME280;14857;41.200;-8.326;2022-10-22T03:24:09;99492.00;;;16.90;100.00
18145;BME280;14857;41.200;-8.326;2022-10-22T03:26:40;99488.06;;;16.94;100.00
18145;BME280;14857;41.200;-8.326;2022-10-22T03:29:10;99461.97;;;16.91;100.00
18145;BME280;14857;41.200;-8.326;2022-10-22T03:31:40;99460.00;;;16.93;100.00
18145;BME280;14857;41.200;-8.326;2022-10-22T03:34:08;99471.56;;;17.00;100.00
18145;BME280;14857;41.200;-8.326;2022-10-22T03:36:40;99449.44;;;16.93;100.00
18145;BME280;14857;41.200;-8.326;2022-10-22T03:39:11;99449.94;;;16.97;100.00
18145;BME280;14857;41.200;-8.326;2022-10-22T03:41:40;99445.81;;;16.94;100.00
18145;BME280;14857;41.200;-8.326;2022-10-22T03:44:10;99434.75;;;16.91;100.00
18145;BME280;14857;41.200;-8.326;2022-10-22T03:46:39;99434.91;;;16.97;100.00
18145;BME280;14857;41.200;-8.326;2022-10-22T03:49:08;99426.34;;;16.95;100.00
18145;BME280;14857;41.200;-8.326;2022-10-22T03:51:36;99423.50;;;16.97;100.00
18145;BME280;14857;41.200;-8.326;2022-10-22T03:54:06;99422.38;;;16.91;100.00
18145;BME280;14857;41.200;-8.326;2022-10-22T03:56:35;99413.47;;;16.92;100.00
18145;BME280;14857;41.200;-8.326;2022-10-22T03:59:04;99393.97;;;16.77;100.00
18145;BME280;14857;41.200;-8.326;2022-10-22T04:01:32;99398.94;;;16.88;100.00
18145;BME280;14857;41.200;-8.326;2022-10-22T04:04:01;99405.69;;;16.91;100.00
18145;BME280;14857;41.200;-8.326;2022-10-22T04:06:30;99399.25;;;16.93;100.00
18145;BME280;14857;41.200;-8.326;2022-10-22T04:08:58;99402.72;;;16.94;100.00
18145;BME280;14857;41.200;-8.326;2022-10-22T04:11:29;99395.31;;;16.89;100.00
18145;BME280;14857;41.200;-8.326;2022-10-22T04:13:58;99401.56;;;16.88;100.00
18145;BME280;14857;41.200;-8.326;2022-10-22T04:16:27;99399.91;;;16.87;100.00
18145;BME280;14857;41.200;-8.326;2022-10-22T04:18:58;99393.97;;;16.85;100.00
18145;BME280;14857;41.200;-8.326;2022-10-22T04:21:26;99390.19;;;16.88;100.00
18145;BME280;14857;41.200;-8.326;2022-10-22T04:23:55;99388.38;;;16.88;100.00
18145;BME280;14857;41.200;-8.326;2022-10-22T04:26:23;99379.97;;;16.76;100.00
18145;BME280;14857;41.200;-8.326;2022-10-22T04:28:53;99370.53;;;16.74;100.00
18145;BME280;14857;41.200;-8.326;2022-10-22T04:31:23;99380.47;;;16.80;100.00
18145;BME280;14857;41.200;-8.326;2022-10-22T04:33:53;99388.19;;;16.82;100.00
18145;BME280;14857;41.200;-8.326;2022-10-22T04:36:22;99396.31;;;16.80;100.00
18145;BME280;14857;41.200;-8.326;2022-10-22T04:38:53;99381.09;;;16.82;100.00
18145;BME280;14857;41.200;-8.326;2022-10-22T04:41:23;99394.97;;;16.92;100.00
18145;BME280;14857;41.200;-8.326;2022-10-22T04:43:54;99387.38;;;16.89;100.00
18145;BME280;14857;41.200;-8.326;2022-10-22T04:46:23;99389.19;;;16.89;100.00
18145;BME280;14857;41.200;-8.326;2022-10-22T04:48:52;99391.66;;;16.90;100.00
18145;BME280;14857;41.200;-8.326;2022-10-22T04:51:23;99378.81;;;16.95;100.00
18145;BME280;14857;41.200;-8.326;2022-10-22T04:53:52;99387.53;;;16.88;100.00
18145;BME280;14857;41.200;-8.326;2022-10-22T04:56:23;99383.91;;;16.89;100.00
18145;BME280;14857;41.200;-8.326;2022-10-22T04:58:55;99380.75;;;16.93;100.00
18145;BME280;14857;41.200;-8.326;2022-10-22T05:04:34;99370.19;;;17.09;100.00
18145;BME280;14857;41.200;-8.326;2022-10-22T05:07:03;99351.22;;;16.98;100.00
18145;BME280;14857;41.200;-8.326;2022-10-22T05:09:31;99351.84;;;17.24;100.00
18145;BME280;14857;41.200;-8.326;2022-10-22T05:12:00;99369.19;;;17.35;100.00
18145;BME280;14857;41.200;-8.326;2022-10-22T05:14:30;99361.94;;;17.28;100.00
18145;BME280;14857;41.200;-8.326;2022-10-22T05:16:59;99368.69;;;17.23;100.00
18145;BME280;14857;41.200;-8.326;2022-10-22T05:19:30;99355.97;;;17.35;100.00
18145;BME280;14857;41.200;-8.326;2022-10-22T05:22:00;99363.91;;;17.35;100.00
18145;BME280;14857;41.200;-8.326;2022-10-22T05:24:31;99355.13;;;17.26;100.00
18145;BME280;14857;41.200;-8.326;2022-10-22T05:27:00;99348.06;;;17.18;100.00
18145;BME280;14857;41.200;-8.326;2022-10-22T05:29:30;99355.47;;;17.23;100.00
18145;BME280;14857;41.200;-8.326;2022-10-22T05:31:58;99352.50;;;17.26;100.00
18145;BME280;14857;41.200;-8.326;2022-10-22T05:34:28;99353.31;;;17.35;100.00
18145;BME280;14857;41.200;-8.326;2022-10-22T05:36:56;99333.66;;;17.29;100.00
18145;BME280;14857;41.200;-8.326;2022-10-22T05:39:25;99348.69;;;17.37;100.00
18145;BME280;14857;41.200;-8.326;2022-10-22T05:41:53;99340.13;;;17.26;100.00
18145;BME280;14857;41.200;-8.326;2022-10-22T05:44:22;99346.19;;;17.35;100.00
18145;BME280;14857;41.200;-8.326;2022-10-22T05:46:52;99333.50;;;17.22;100.00
18145;BME280;14857;41.200;-8.326;2022-10-22T05:49:20;99331.84;;;17.29;100.00
18145;BME280;14857;41.200;-8.326;2022-10-22T05:51:49;99333.50;;;17.30;100.00
18145;BME280;14857;41.200;-8.326;2022-10-22T05:54:18;99329.22;;;17.29;100.00
18145;BME280;14857;41.200;-8.326;2022-10-22T05:56:48;99329.22;;;17.29;100.00
18145;BME280;14857;41.200;-8.326;2022-10-22T05:59:17;99306.09;;;17.31;100.00
18145;BME280;14857;41.200;-8.326;2022-10-22T06:01:45;99320.94;;;17.41;100.00
18145;BME280;14857;41.200;-8.326;2022-10-22T06:04:16;99307.38;;;17.36;100.00
18145;BME280;14857;41.200;-8.326;2022-10-22T06:06:45;99314.97;;;17.47;100.00
18145;BME280;14857;41.200;-8.326;2022-10-22T06:09:18;99299.13;;;17.39;100.00
18145;BME280;14857;41.200;-8.326;2022-10-22T06:11:47;99311.34;;;17.48;100.00
18145;BME280;14857;41.200;-8.326;2022-10-22T06:14:18;99263.38;;;17.12;100.00
18145;BME280;14857;41.200;-8.326;2022-10-22T06:16:47;99303.91;;;17.43;100.00
18145;BME280;14857;41.200;-8.326;2022-10-22T06:19:19;99287.53;;;17.48;100.00
18145;BME280;14857;41.200;-8.326;2022-10-22T06:21:47;99291.63;;;17.58;100.00
18145;BME280;14857;41.200;-8.326;2022-10-22T06:24:16;99267.19;;;17.48;100.00
18145;BME280;14857;41.200;-8.326;2022-10-22T06:26:44;99275.78;;;17.58;100.00
18145;BME280;14857;41.200;-8.326;2022-10-22T06:29:16;99271.78;;;17.62;100.00
18145;BME280;14857;41.200;-8.326;2022-10-22T06:31:45;99269.78;;;17.64;100.00
18145;BME280;14857;41.200;-8.326;2022-10-22T06:34:13;99267.97;;;17.73;100.00
18145;BME280;14857;41.200;-8.326;2022-10-22T06:36:46;99269.94;;;17.71;100.00
18145;BME280;14857;41.200;-8.326;2022-10-22T06:39:16;99266.31;;;17.72;100.00
18145;BME280;14857;41.200;-8.326;2022-10-22T06:41:44;99260.88;;;17.65;100.00
18145;BME280;14857;41.200;-8.326;2022-10-22T06:44:17;99256.06;;;17.69;100.00
18145;BME280;14857;41.200;-8.326;2022-10-22T06:46:48;99259.00;;;17.74;100.00
18145;BME280;14857;41.200;-8.326;2022-10-22T06:49:19;99246.81;;;17.73;100.00
18145;BME280;14857;41.200;-8.326;2022-10-22T06:51:50;99241.75;;;17.86;100.00
18145;BME280;14857;41.200;-8.326;2022-10-22T06:54:19;99244.34;;;17.94;100.00
18145;BME280;14857;41.200;-8.326;2022-10-22T06:56:47;99249.16;;;17.91;100.00
18145;BME280;14857;41.200;-8.326;2022-10-22T06:59:16;99244.56;;;17.84;100.00
18145;BME280;14857;41.200;-8.326;2022-10-22T07:01:44;99248.16;;;17.92;100.00
18145;BME280;14857;41.200;-8.326;2022-10-22T07:04:13;99250.00;;;17.91;100.00
18145;BME280;14857;41.200;-8.326;2022-10-22T07:06:42;99240.41;;;18.13;100.00
18145;BME280;14857;41.200;-8.326;2022-10-22T07:09:12;99243.16;;;18.19;100.00
18145;BME280;14857;41.200;-8.326;2022-10-22T07:11:43;99232.22;;;18.22;100.00
18145;BME280;14857;41.200;-8.326;2022-10-22T07:14:46;99227.88;;;18.29;100.00
18145;BME280;14857;41.200;-8.326;2022-10-22T07:17:21;99220.25;;;18.34;100.00
18145;BME280;14857;41.200;-8.326;2022-10-22T07:19:50;99213.66;;;18.30;100.00
18145;BME280;14857;41.200;-8.326;2022-10-22T07:22:43;99218.97;;;18.45;100.00
18145;BME280;14857;41.200;-8.326;2022-10-22T07:25:14;99226.13;;;18.45;100.00
18145;BME280;14857;41.200;-8.326;2022-10-22T07:27:42;99219.63;;;18.47;100.00
18145;BME280;14857;41.200;-8.326;2022-10-22T07:30:11;99208.81;;;18.57;100.00
18145;BME280;14857;41.200;-8.326;2022-10-22T07:32:40;99192.34;;;18.47;100.00
18145;BME280;14857;41.200;-8.326;2022-10-22T07:35:09;99201.97;;;18.62;100.00
18145;BME280;14857;41.200;-8.326;2022-10-22T07:37:37;99193.13;;;18.70;100.00
18145;BME280;14857;41.200;-8.326;2022-10-22T07:40:07;99183.09;;;18.80;100.00
18145;BME280;14857;41.200;-8.326;2022-10-22T07:42:37;99172.88;;;18.77;100.00
18145;BME280;14857;41.200;-8.326;2022-10-22T07:45:07;99167.56;;;18.77;100.00
18145;BME280;14857;41.200;-8.326;2022-10-22T07:47:35;99171.94;;;18.70;100.00
18145;BME280;14857;41.200;-8.326;2022-10-22T07:50:05;99175.41;;;18.85;100.00
18145;BME280;14857;41.200;-8.326;2022-10-22T07:52:34;99184.44;;;18.91;100.00
18145;BME280;14857;41.200;-8.326;2022-10-22T07:55:04;99191.84;;;18.95;100.00
18145;BME280;14857;41.200;-8.326;2022-10-22T07:57:33;99176.41;;;18.84;100.00
18145;BME280;14857;41.200;-8.326;2022-10-22T08:00:06;99159.88;;;18.82;100.00
18145;BME280;14857;41.200;-8.326;2022-10-22T08:02:37;99187.84;;;18.99;100.00
18145;BME280;14857;41.200;-8.326;2022-10-22T08:05:07;99198.06;;;19.02;100.00
18145;BME280;14857;41.200;-8.326;2022-10-22T08:07:35;99193.69;;;19.09;100.00
18145;BME280;14857;41.200;-8.326;2022-10-22T08:10:04;99211.50;;;19.15;100.00
18145;BME280;14857;41.200;-8.326;2022-10-22T08:12:35;99197.41;;;19.15;100.00
18145;BME280;14857;41.200;-8.326;2022-10-22T08:15:06;99199.13;;;19.37;100.00
18145;BME280;14857;41.200;-8.326;2022-10-22T08:17:35;99183.75;;;19.32;100.00
18145;BME280;14857;41.200;-8.326;2022-10-22T08:20:04;99200.91;;;19.45;100.00
18145;BME280;14857;41.200;-8.326;2022-10-22T08:22:33;99169.25;;;19.28;100.00
18145;BME280;14857;41.200;-8.326;2022-10-22T08:25:02;99210.47;;;19.46;100.00
18145;BME280;14857;41.200;-8.326;2022-10-22T08:27:30;99204.16;;;19.47;100.00
18145;BME280;14857;41.200;-8.326;2022-10-22T08:29:59;99210.84;;;19.43;100.00
18145;BME280;14857;41.200;-8.326;2022-10-22T08:32:29;99220.88;;;19.32;100.00
18145;BME280;14857;41.200;-8.326;2022-10-22T08:34:58;99200.63;;;19.25;100.00
18145;BME280;14857;41.200;-8.326;2022-10-22T08:37:26;99209.59;;;19.09;100.00
18145;BME280;14857;41.200;-8.326;2022-10-22T08:39:55;99231.50;;;18.74;100.00
18145;BME280;14857;41.200;-8.326;2022-10-22T08:42:58;99255.69;;;18.48;100.00
18145;BME280;14857;41.200;-8.326;2022-10-22T08:45:38;99276.94;;;18.40;100.00
18145;BME280;14857;41.200;-8.326;2022-10-22T08:48:20;99279.75;;;18.38;100.00
18145;BME280;14857;41.200;-8.326;2022-10-22T08:50:53;99270.09;;;19.06;100.00
18145;BME280;14857;41.200;-8.326;2022-10-22T08:53:29;99240.88;;;20.91;100.00
18145;BME280;14857;41.200;-8.326;2022-10-22T08:55:58;99223.75;;;20.66;100.00
18145;BME280;14857;41.200;-8.326;2022-10-22T08:58:33;99213.97;;;21.08;100.00
18145;BME280;14857;41.200;-8.326;2022-10-22T09:01:09;99198.22;;;22.47;100.00
18145;BME280;14857;41.200;-8.326;2022-10-22T09:03:47;99192.44;;;24.29;100.00
18145;BME280;14857;41.200;-8.326;2022-10-22T09:06:19;99197.94;;;24.84;100.00
18145;BME280;14857;41.200;-8.326;2022-10-22T09:08:49;99197.56;;;23.99;100.00
18145;BME280;14857;41.200;-8.326;2022-10-22T09:11:24;99185.56;;;24.65;100.00
18145;BME280;14857;41.200;-8.326;2022-10-22T09:13:54;99173.69;;;25.33;100.00
18145;BME280;14857;41.200;-8.326;2022-10-22T09:16:32;99169.94;;;25.71;100.00
18145;BME280;14857;41.200;-8.326;2022-10-22T09:19:14;99184.22;;;24.74;100.00
18145;BME280;14857;41.200;-8.326;2022-10-22T09:21:53;99169.47;;;24.22;100.00
18145;BME280;14857;41.200;-8.326;2022-10-22T09:25:10;99173.28;;;23.25;100.00
18145;BME280;14857;41.200;-8.326;2022-10-22T09:27:29;99172.97;;;21.84;100.00
18145;BME280;14857;41.200;-8.326;2022-10-22T09:29:59;99177.75;;;22.21;100.00
18145;BME280;14857;41.200;-8.326;2022-10-22T09:32:28;99187.56;;;21.40;100.00
18145;BME280;14857;41.200;-8.326;2022-10-22T09:34:58;99182.00;;;20.94;100.00
18145;BME280;14857;41.200;-8.326;2022-10-22T09:37:28;99183.38;;;21.12;100.00
18145;BME280;14857;41.200;-8.326;2022-10-22T09:39:57;99186.09;;;20.14;100.00
18145;BME280;14857;41.200;-8.326;2022-10-22T09:42:31;99167.38;;;20.43;100.00
18145;BME280;14857;41.200;-8.326;2022-10-22T09:45:01;99169.19;;;21.59;100.00
18145;BME280;14857;41.200;-8.326;2022-10-22T09:47:32;99138.53;;;21.76;100.00
18145;BME280;14857;41.200;-8.326;2022-10-22T09:50:23;99156.25;;;21.42;100.00
18145;BME280;14857;41.200;-8.326;2022-10-22T09:53:00;99137.25;;;20.98;100.00
18145;BME280;14857;41.200;-8.326;2022-10-22T09:55:31;99144.16;;;20.52;100.00
18145;BME280;14857;41.200;-8.326;2022-10-22T09:57:59;99148.69;;;20.58;100.00
18145;BME280;14857;41.200;-8.326;2022-10-22T10:00:28;99152.81;;;20.67;100.00
18145;BME280;14857;41.200;-8.326;2022-10-22T10:02:58;99149.38;;;20.73;100.00
18145;BME280;14857;41.200;-8.326;2022-10-22T10:05:30;99139.19;;;20.76;100.00
18145;BME280;14857;41.200;-8.326;2022-10-22T10:08:07;99136.50;;;20.70;100.00
18145;BME280;14857;41.200;-8.326;2022-10-22T10:10:44;99111.59;;;20.77;100.00
18145;BME280;14857;41.200;-8.326;2022-10-22T10:13:29;99118.53;;;20.78;100.00
18145;BME280;14857;41.200;-8.326;2022-10-22T10:16:11;99133.22;;;20.68;100.00
18145;BME280;14857;41.200;-8.326;2022-10-22T10:18:50;99132.81;;;20.71;100.00
18145;BME280;14857;41.200;-8.326;2022-10-22T10:21:31;99122.03;;;20.45;100.00
18145;BME280;14857;41.200;-8.326;2022-10-22T10:24:12;99150.31;;;20.59;100.00
18145;BME280;14857;41.200;-8.326;2022-10-22T10:26:49;99123.75;;;20.59;100.00
18145;BME280;14857;41.200;-8.326;2022-10-22T10:29:31;99131.09;;;20.57;100.00
18145;BME280;14857;41.200;-8.326;2022-10-22T10:32:16;99133.84;;;20.42;100.00
18145;BME280;14857;41.200;-8.326;2022-10-22T10:34:59;99135.44;;;20.36;100.00
18145;BME280;14857;41.200;-8.326;2022-10-22T10:37:37;99133.38;;;20.32;100.00
18145;BME280;14857;41.200;-8.326;2022-10-22T10:40:24;99128.97;;;20.46;100.00
18145;BME280;14857;41.200;-8.326;2022-10-22T10:42:57;99112.63;;;20.49;100.00
18145;BME280;14857;41.200;-8.326;2022-10-22T10:45:33;99124.72;;;20.51;100.00
18145;BME280;14857;41.200;-8.326;2022-10-22T10:48:27;99126.56;;;20.51;100.00
18145;BME280;14857;41.200;-8.326;2022-10-22T10:51:05;99136.81;;;20.54;100.00
18145;BME280;14857;41.200;-8.326;2022-10-22T10:53:57;99133.19;;;20.61;100.00
18145;BME280;14857;41.200;-8.326;2022-10-22T10:56:34;99131.19;;;20.70;100.00
18145;BME280;14857;41.200;-8.326;2022-10-22T10:59:29;99125.06;;;20.76;100.00
18145;BME280;14857;41.200;-8.326;2022-10-22T11:02:30;99112.97;;;20.67;100.00
18145;BME280;14857;41.200;-8.326;2022-10-22T11:05:16;99132.44;;;20.74;100.00
18145;BME280;14857;41.200;-8.326;2022-10-22T11:07:54;99151.47;;;20.77;100.00
18145;BME280;14857;41.200;-8.326;2022-10-22T11:10:32;99122.19;;;20.71;100.00
18145;BME280;14857;41.200;-8.326;2022-10-22T11:13:10;99150.38;;;20.72;100.00
18145;BME280;14857;41.200;-8.326;2022-10-22T11:15:44;99147.56;;;20.46;100.00
18145;BME280;14857;41.200;-8.326;2022-10-22T11:18:19;99147.91;;;20.64;100.00
18145;BME280;14857;41.200;-8.326;2022-10-22T11:20:55;99169.81;;;20.72;100.00
18145;BME280;14857;41.200;-8.326;2022-10-22T11:23:31;99177.25;;;20.56;100.00
18145;BME280;14857;41.200;-8.326;2022-10-22T11:26:04;99140.16;;;20.69;100.00
18145;BME280;14857;41.200;-8.326;2022-10-22T11:28:41;99125.56;;;20.92;100.00
18145;BME280;14857;41.200;-8.326;2022-10-22T11:31:13;99120.66;;;20.89;100.00
18145;BME280;14857;41.200;-8.326;2022-10-22T11:33:47;99117.59;;;21.40;100.00
18145;BME280;14857;41.200;-8.326;2022-10-22T11:36:27;99108.00;;;21.59;100.00
18145;BME280;14857;41.200;-8.326;2022-10-22T11:39:03;99104.47;;;21.25;100.00
18145;BME280;14857;41.200;-8.326;2022-10-22T11:41:33;99106.56;;;21.50;100.00
18145;BME280;14857;41.200;-8.326;2022-10-22T11:44:18;99108.00;;;21.59;100.00
18145;BME280;14857;41.200;-8.326;2022-10-22T11:46:54;99077.91;;;21.45;100.00
18145;BME280;14857;41.200;-8.326;2022-10-22T11:49:25;99088.94;;;21.29;100.00
18145;BME280;14857;41.200;-8.326;2022-10-22T11:52:22;99068.53;;;20.95;100.00
18145;BME280;14857;41.200;-8.326;2022-10-22T11:54:55;99077.50;;;20.94;100.00
18145;BME280;14857;41.200;-8.326;2022-10-22T11:57:35;99078.84;;;21.11;100.00
18145;BME280;14857;41.200;-8.326;2022-10-22T12:00:08;99082.84;;;21.01;100.00
18145;BME280;14857;41.200;-8.326;2022-10-22T12:02:42;99051.03;;;21.20;100.00
18145;BME280;14857;41.200;-8.326;2022-10-22T12:05:35;99063.50;;;21.13;100.00
18145;BME280;14857;41.200;-8.326;2022-10-22T12:08:24;99059.47;;;21.37;100.00
18145;BME280;14857;41.200;-8.326;2022-10-22T12:11:04;99045.06;;;21.05;100.00
18145;BME280;14857;41.200;-8.326;2022-10-22T12:13:52;99047.84;;;20.90;100.00
18145;BME280;14857;41.200;-8.326;2022-10-22T12:16:26;99049.34;;;21.06;100.00
18145;BME280;14857;41.200;-8.326;2022-10-22T12:19:16;99055.75;;;21.18;100.00
18145;BME280;14857;41.200;-8.326;2022-10-22T12:21:47;99046.22;;;20.83;100.00
18145;BME280;14857;41.200;-8.326;2022-10-22T12:24:18;99042.25;;;20.66;100.00
18145;BME280;14857;41.200;-8.326;2022-10-22T12:26:48;99062.94;;;20.77;100.00
18145;BME280;14857;41.200;-8.326;2022-10-22T12:29:21;99054.28;;;20.62;100.00
18145;BME280;14857;41.200;-8.326;2022-10-22T12:31:51;99046.06;;;20.50;100.00
18145;BME280;14857;41.200;-8.326;2022-10-22T12:34:22;99058.00;;;20.67;100.00
18145;BME280;14857;41.200;-8.326;2022-10-22T12:36:52;99037.22;;;20.84;100.00
18145;BME280;14857;41.200;-8.326;2022-10-22T12:39:23;99044.94;;;20.72;100.00
18145;BME280;14857;41.200;-8.326;2022-10-22T12:41:53;99032.88;;;20.70;100.00
18145;BME280;14857;41.200;-8.326;2022-10-22T12:44:24;99049.06;;;20.88;100.00
18145;BME280;14857;41.200;-8.326;2022-10-22T12:46:53;99034.31;;;20.79;100.00
18145;BME280;14857;41.200;-8.326;2022-10-22T12:49:32;99036.38;;;20.77;100.00
18145;BME280;14857;41.200;-8.326;2022-10-22T12:52:05;99027.31;;;20.65;100.00
18145;BME280;14857;41.200;-8.326;2022-10-22T12:54:39;99019.13;;;20.60;100.00
18145;BME280;14857;41.200;-8.326;2022-10-22T12:57:12;99015.25;;;20.62;100.00
18145;BME280;14857;41.200;-8.326;2022-10-22T12:59:45;99019.00;;;20.33;100.00
18145;BME280;14857;41.200;-8.326;2022-10-22T13:02:18;99007.34;;;20.28;100.00
18145;BME280;14857;41.200;-8.326;2022-10-22T13:05:14;99025.81;;;20.15;100.00
18145;BME280;14857;41.200;-8.326;2022-10-22T13:07:47;99042.50;;;20.09;100.00
18145;BME280;14857;41.200;-8.326;2022-10-22T13:10:18;99048.03;;;20.14;100.00
18145;BME280;14857;41.200;-8.326;2022-10-22T13:12:54;99065.97;;;19.56;100.00
18145;BME280;14857;41.200;-8.326;2022-10-22T13:15:36;99083.19;;;18.74;100.00